Almond, NY

9:06 AM EST on January 26, 2015 (GMT -0500)
Ardachy Farm | Change Station
CLOSE
Current Station
Personal Weather Station
Location: Alfred Station, NY
Elevation: 1877 ft
Nearby Weather Stations

Elev 1877 ft 42.28 °N, 77.77 °W | Updated 27 seconds ago

Snow
Snow
8.2 °F
Feels Like 0 °F
N
4.5
Wind Variable Wind from NE
Gusts 7.6 mph

Today
High -- | Low -- °F
--% Chance of Precip.
Yesterday
High -- | Low -- °F
Precip. -- in
7:30 AM 5:17 PM
Waxing Crescent, 43% visible
Pressure 29.92 in
Visibility 2.0 miles
Clouds Mostly Cloudy 2200 ft
Overcast 2800 ft
Windchill 0 °F
Dew Point 4 °F
Humidity 82%
Rainfall 0.00 in
Snow Depth Not available.
UV 0 out of 12
Pollen .10 out of 12
Air Quality Not available.
Flu Activity Not available.
METAR KELZ 261356Z AUTO 08005KT 2SM -SN BR BKN022 OVC028 M12/M14 A2979 RMK AO2 SLP130 P0002 T11221144

More Conditions Fewer Conditions

Pressure 29.92 in
Visibility 2.0 miles
Clouds Mostly Cloudy 2200 ft
Overcast 2800 ft
Windchill 0 °F
Dew Point 4 °F
Humidity 82%
Rainfall 0.00 in
Snow Depth Not available.
UV 0 out of 12
Pollen .10 out of 12
Air Quality Not available.
Flu Activity Not available.
METAR KELZ 261356Z AUTO 08005KT 2SM -SN BR BKN022 OVC028 M12/M14 A2979 RMK AO2 SLP130 P0002 T11221144

More Conditions Fewer Conditions

10-Day Weather Forecast

Almanac

Astronomy

Jan. 26, 2015 Rise Set
Actual Time
Civil Twilight
Nautical Twilight
Astronomical Twilight
Moon
Length of Visible Light
Length of Day
Tomorrow will be .
, % of the Moon is Illuminated

Today's Extremes

State Highs State Lows

Community

WunderPhotos

Upload Photos

1,790,205 photos uploaded!

WunderBlogs® & News

Nearby

Air Quality

  Air Quality AQ Index Pollutant
Not available.

Snow Depth

Station Depth Elevation

Earthquake Activity

City Distance Mag. Time & Date
Minimum magnitude displayed is 2.5.

Coastal Water Temperatures

Place Temperature

Nearby Weather Stations